Terminal Aerodrome Forecast
Issued by NWS Portland, OR

Home | Current Version | Previous Version | Text Only | Print | Product List | Glossary On
Versions: 1 2 3 4 5 6 7 8 9 10 11 12 13 14
000
FTUS46 KPQR 191141
TAFHIO
TAF
KHIO 191141Z 1912/2012 18010KT P6SM -SHRA SCT025 BKN060
     FM192000 22011G20KT P6SM -SHRA BKN040 BKN060
     FM200400 20005KT P6SM -RA SCT015 OVC050
     FM200800 19006KT P6SM -RA BKN025 OVC040=

USA.gov is the U.S. government's official web portal to all federal, state and local government web resources and services.